createdAt,value
2023-05-01T00:01:35.157Z,99.90
2023-05-01T00:04:02.599Z,99.90
2023-05-01T00:06:30.050Z,99.90
2023-05-01T00:08:57.255Z,99.90
2023-05-01T00:11:24.906Z,99.90
2023-05-01T00:13:52.084Z,99.90
2023-05-01T00:16:19.729Z,99.90
2023-05-01T00:18:47.114Z,99.90
2023-05-01T00:21:14.361Z,99.90
2023-05-01T00:23:41.544Z,99.90
2023-05-01T00:26:08.752Z,99.90
2023-05-01T00:28:36.253Z,99.90
2023-05-01T00:31:03.487Z,99.90
2023-05-01T00:33:30.722Z,99.90
2023-05-01T00:35:57.847Z,99.90
2023-05-01T00:38:25.064Z,99.90
2023-05-01T00:40:52.150Z,99.90
2023-05-01T00:43:19.560Z,99.90
2023-05-01T00:45:46.807Z,99.90
2023-05-01T00:48:15.966Z,99.90
2023-05-01T00:50:44.574Z,99.90
2023-05-01T00:53:12.411Z,99.90
2023-05-01T00:55:42.670Z,99.90
2023-05-01T00:58:11.967Z,99.90
2023-05-01T01:00:39.520Z,99.90
2023-05-01T01:03:06.810Z,99.90
2023-05-01T01:05:40.836Z,99.90
2023-05-01T01:08:22.134Z,99.90
2023-05-01T01:11:30.431Z,99.90
2023-05-01T01:14:11.617Z,99.90
2023-05-01T01:17:12.063Z,99.90
2023-05-01T01:20:04.111Z,99.90
2023-05-01T01:22:31.966Z,99.90
2023-05-01T01:24:59.289Z,99.90
2023-05-01T01:28:12.452Z,99.90
2023-05-01T01:30:52.577Z,99.90
2023-05-01T01:33:27.462Z,99.90
2023-05-01T01:36:02.668Z,99.90
2023-05-01T01:38:58.945Z,99.90
2023-05-01T01:41:31.959Z,99.90
2023-05-01T01:44:04.181Z,99.90
2023-05-01T01:46:37.413Z,99.90
2023-05-01T01:49:09.280Z,99.90
2023-05-01T01:51:40.170Z,99.90
2023-05-01T01:54:09.891Z,99.90
2023-05-01T01:56:38.040Z,99.90
2023-05-01T01:59:06.294Z,99.90
2023-05-01T02:01:35.134Z,99.90
2023-05-01T02:04:05.462Z,99.90
2023-05-01T02:06:35.590Z,99.90
2023-05-01T02:09:06.494Z,99.90
2023-05-01T02:11:35.260Z,99.90
2023-05-01T02:14:03.723Z,99.90
2023-05-01T02:16:33.629Z,99.90
2023-05-01T02:19:04.380Z,99.90
2023-05-01T02:21:34.879Z,99.90
2023-05-01T02:24:02.522Z,99.90
2023-05-01T02:26:30.723Z,99.90
2023-05-01T02:28:58.523Z,99.90
2023-05-01T02:31:25.829Z,99.90
2023-05-01T02:33:52.903Z,99.90
2023-05-01T02:36:20.264Z,99.90
2023-05-01T02:38:51.108Z,99.90
2023-05-01T02:41:22.638Z,99.90
2023-05-01T02:43:56.897Z,99.90
2023-05-01T02:46:26.764Z,99.90
2023-05-01T02:48:56.677Z,99.90
2023-05-01T02:51:24.995Z,99.90
2023-05-01T02:53:52.757Z,99.90
2023-05-01T02:56:20.240Z,99.90
2023-05-01T02:58:49.506Z,99.90
2023-05-01T03:01:17.093Z,99.90
2023-05-01T03:03:44.464Z,99.90
2023-05-01T03:06:11.589Z,99.90
2023-05-01T03:08:38.625Z,99.90
2023-05-01T03:11:08.891Z,99.90
2023-05-01T03:13:36.269Z,99.90
2023-05-01T03:16:04.656Z,99.90
2023-05-01T03:18:31.909Z,99.90
2023-05-01T03:20:59.081Z,99.90
2023-05-01T03:23:26.305Z,99.90
2023-05-01T03:25:54.778Z,99.90
2023-05-01T03:28:23.608Z,99.90
2023-05-01T03:30:54.346Z,99.90
2023-05-01T03:33:21.530Z,99.90
2023-05-01T03:35:48.828Z,99.90
2023-05-01T03:38:16.218Z,99.90
2023-05-01T03:40:43.477Z,99.90
2023-05-01T03:43:10.618Z,99.90
2023-05-01T03:45:38.052Z,99.90
2023-05-01T03:48:05.621Z,99.90
2023-05-01T03:50:32.893Z,99.90
2023-05-01T03:53:00.134Z,99.90
2023-05-01T03:55:27.601Z,99.90
2023-05-01T03:57:54.732Z,99.90
2023-05-01T04:00:21.962Z,99.90
2023-05-01T04:02:49.710Z,99.90
2023-05-01T04:05:18.350Z,99.90
2023-05-01T04:07:45.954Z,99.90
2023-05-01T04:10:13.340Z,99.90
2023-05-01T04:12:41.105Z,99.90
2023-05-01T04:15:09.312Z,99.90
2023-05-01T04:17:37.239Z,99.90
2023-05-01T04:20:06.254Z,99.90
2023-05-01T04:22:33.773Z,99.90
2023-05-01T04:25:01.010Z,99.90
2023-05-01T04:27:28.185Z,99.90
2023-05-01T04:29:55.608Z,99.90
2023-05-01T04:32:23.030Z,99.90
2023-05-01T04:34:50.267Z,99.90
2023-05-01T04:37:18.752Z,99.90
2023-05-01T04:39:45.987Z,99.90
2023-05-01T04:42:13.142Z,99.90
2023-05-01T04:44:40.270Z,99.90
2023-05-01T04:47:07.923Z,99.90
2023-05-01T04:49:35.127Z,99.90
2023-05-01T04:52:02.375Z,99.90
2023-05-01T04:54:29.697Z,99.90
2023-05-01T04:56:57.012Z,99.90
2023-05-01T04:59:24.113Z,99.90
2023-05-01T05:01:51.596Z,99.90
2023-05-01T05:04:18.943Z,99.90
2023-05-01T05:06:45.959Z,99.90
2023-05-01T05:09:13.443Z,99.90
2023-05-01T05:11:41.257Z,99.90
2023-05-01T05:14:08.389Z,99.90
2023-05-01T05:16:35.609Z,99.90
2023-05-01T05:19:03.225Z,99.90
2023-05-01T05:21:31.684Z,99.90
2023-05-01T05:23:58.944Z,99.90
2023-05-01T05:26:26.903Z,99.90
2023-05-01T05:28:54.777Z,99.90
2023-05-01T05:31:22.216Z,99.90
2023-05-01T05:33:49.303Z,99.90
2023-05-01T05:36:16.472Z,99.90
2023-05-01T05:38:43.834Z,99.90
2023-05-01T05:41:11.099Z,99.90
2023-05-01T05:43:38.326Z,99.90
2023-05-01T05:46:05.748Z,99.90
2023-05-01T05:48:33.225Z,99.90
2023-05-01T05:51:00.500Z,99.90
2023-05-01T05:53:27.618Z,99.90
2023-05-01T05:55:55.195Z,99.90
2023-05-01T05:58:23.405Z,99.90
2023-05-01T06:00:50.841Z,99.90
2023-05-01T06:03:19.558Z,99.90
2023-05-01T06:05:46.832Z,99.90
2023-05-01T06:08:14.454Z,99.90
2023-05-01T06:10:44.228Z,99.90
2023-05-01T06:13:14.010Z,99.90
2023-05-01T06:15:42.365Z,99.90
2023-05-01T06:18:09.666Z,99.90
2023-05-01T06:20:37.042Z,99.90
2023-05-01T06:23:04.271Z,99.90
2023-05-01T06:25:31.602Z,99.90
2023-05-01T06:27:58.888Z,99.90
2023-05-01T06:30:26.111Z,99.90
2023-05-01T06:32:53.339Z,99.90
2023-05-01T06:35:21.142Z,99.90
2023-05-01T06:37:48.173Z,99.90
2023-05-01T06:40:15.342Z,99.90
2023-05-01T06:42:43.025Z,99.90
2023-05-01T06:45:10.149Z,99.90
2023-05-01T06:47:37.369Z,99.90
2023-05-01T06:50:05.663Z,99.90
2023-05-01T06:52:33.291Z,99.90
2023-05-01T06:55:00.963Z,99.90
2023-05-01T06:57:28.296Z,99.90
2023-05-01T06:59:55.805Z,99.90
2023-05-01T07:02:23.359Z,99.90
2023-05-01T07:04:50.430Z,99.90
2023-05-01T07:07:17.545Z,99.90
2023-05-01T07:09:45.091Z,99.90
2023-05-01T07:12:13.175Z,99.90
2023-05-01T07:14:41.823Z,99.90
2023-05-01T07:17:09.402Z,99.90
2023-05-01T07:19:36.739Z,99.90
2023-05-01T07:22:04.833Z,99.90
2023-05-01T07:24:32.169Z,99.90
2023-05-01T07:27:00.159Z,99.90
2023-05-01T07:29:27.288Z,99.90
2023-05-01T07:31:54.717Z,99.90
2023-05-01T07:34:21.924Z,99.90
2023-05-01T07:36:49.061Z,99.90
2023-05-01T07:39:17.714Z,99.90
2023-05-01T07:41:44.753Z,99.90
2023-05-01T07:44:11.844Z,99.90
2023-05-01T07:46:39.189Z,99.90
2023-05-01T07:49:06.293Z,99.90
2023-05-01T07:51:33.819Z,99.90
2023-05-01T07:54:04.335Z,99.90
2023-05-01T07:56:31.918Z,99.90
2023-05-01T07:58:59.062Z,99.90
2023-05-01T08:01:26.231Z,99.90
2023-05-01T08:03:53.858Z,99.90
2023-05-01T08:06:20.970Z,99.90
2023-05-01T08:08:48.007Z,99.90
2023-05-01T08:11:15.230Z,99.90
2023-05-01T08:13:42.283Z,99.90
2023-05-01T08:16:09.373Z,99.90
2023-05-01T08:18:36.478Z,99.90
2023-05-01T08:21:03.596Z,99.90
2023-05-01T08:23:30.708Z,99.90
2023-05-01T08:25:58.259Z,99.90
2023-05-01T08:28:25.452Z,99.90
2023-05-01T08:30:52.425Z,99.90
2023-05-01T08:33:19.614Z,99.90
2023-05-01T08:35:46.715Z,99.90
2023-05-01T08:38:13.734Z,99.90
2023-05-01T08:40:43.484Z,99.90
2023-05-01T08:43:10.930Z,99.90
2023-05-01T08:45:38.763Z,99.90
2023-05-01T08:48:07.176Z,99.90
2023-05-01T08:50:37.866Z,99.90
2023-05-01T08:53:06.612Z,99.90
2023-05-01T08:55:36.345Z,99.90
2023-05-01T08:58:05.316Z,99.90
2023-05-01T09:00:35.665Z,99.90
2023-05-01T09:03:05.205Z,99.90
2023-05-01T09:05:33.597Z,99.90
2023-05-01T09:08:01.186Z,99.90
2023-05-01T09:10:31.755Z,99.90
2023-05-01T09:13:07.212Z,99.90
2023-05-01T09:15:34.327Z,99.90
2023-05-01T09:18:03.822Z,99.90
2023-05-01T09:20:32.560Z,99.90
2023-05-01T09:22:59.954Z,99.90
2023-05-01T09:25:28.079Z,99.90
2023-05-01T09:27:57.352Z,99.90
2023-05-01T09:30:38.045Z,99.90
2023-05-01T09:33:12.465Z,99.90
2023-05-01T09:35:52.759Z,99.90
2023-05-01T09:38:22.782Z,99.90
2023-05-01T09:40:50.414Z,99.90
2023-05-01T09:43:27.879Z,99.90
2023-05-01T09:46:10.996Z,99.90
2023-05-01T09:48:38.662Z,99.90
2023-05-01T09:51:22.996Z,99.90
2023-05-01T09:53:51.413Z,99.90
2023-05-01T09:56:19.658Z,99.90
2023-05-01T09:58:47.303Z,99.90
2023-05-01T10:01:15.295Z,99.90
2023-05-01T10:03:44.351Z,99.90
2023-05-01T10:06:11.895Z,99.90
2023-05-01T10:08:50.187Z,99.90
2023-05-01T10:11:17.476Z,99.90
2023-05-01T10:13:44.859Z,99.90
2023-05-01T10:16:30.220Z,99.90
2023-05-01T10:18:58.556Z,99.90
2023-05-01T10:21:26.520Z,99.90
2023-05-01T10:23:55.095Z,99.90
2023-05-01T10:26:22.265Z,99.90
2023-05-01T10:28:50.183Z,99.90
2023-05-01T10:31:17.432Z,99.90
2023-05-01T10:33:46.198Z,99.90
2023-05-01T10:36:37.469Z,99.90
2023-05-01T10:39:04.470Z,99.60
2023-05-01T10:41:59.321Z,99.90
2023-05-01T10:44:27.278Z,99.80
2023-05-01T10:46:55.425Z,99.90
2023-05-01T10:49:23.322Z,99.70
2023-05-01T10:51:59.241Z,99.90
2023-05-01T10:54:33.121Z,99.90
2023-05-01T10:57:02.763Z,99.90
2023-05-01T11:00:03.840Z,99.90
2023-05-01T11:02:31.112Z,99.90
2023-05-01T11:04:58.342Z,99.90
2023-05-01T11:07:26.237Z,99.90
2023-05-01T11:09:55.521Z,99.90
2023-05-01T11:12:49.192Z,99.90
2023-05-01T11:15:32.876Z,99.90
2023-05-01T11:18:01.446Z,99.90
2023-05-01T11:20:29.255Z,99.90
2023-05-01T11:22:57.665Z,99.90
2023-05-01T11:25:33.213Z,99.90
2023-05-01T11:28:01.909Z,99.90
2023-05-01T11:30:41.223Z,99.90
2023-05-01T11:33:10.613Z,99.90
2023-05-01T11:35:39.672Z,99.90
2023-05-01T11:38:06.673Z,99.90
2023-05-01T11:40:35.033Z,99.90
2023-05-01T11:43:07.545Z,99.90
2023-05-01T11:45:37.321Z,99.90
2023-05-01T11:48:05.625Z,99.90
2023-05-01T11:50:37.230Z,99.90
2023-05-01T11:53:11.800Z,99.90
2023-05-01T11:55:40.263Z,99.90
2023-05-01T11:58:07.553Z,99.90
2023-05-01T12:00:37.781Z,99.90
2023-05-01T12:03:07.803Z,99.90
2023-05-01T12:05:37.364Z,99.90
2023-05-01T12:08:19.088Z,99.90
2023-05-01T12:10:52.045Z,99.90
2023-05-01T12:13:20.051Z,99.90
2023-05-01T12:15:48.568Z,99.90
2023-05-01T12:18:17.360Z,99.90
2023-05-01T12:20:53.045Z,99.90
2023-05-01T12:23:35.948Z,99.90
2023-05-01T12:26:16.535Z,99.90
2023-05-01T12:28:57.084Z,99.90
2023-05-01T12:31:25.515Z,98.80
2023-05-01T12:34:00.369Z,98.50
2023-05-01T12:36:30.031Z,99.70
2023-05-01T12:39:13.892Z,98.70
2023-05-01T12:41:46.148Z,97.70
2023-05-01T12:44:25.547Z,98.60
2023-05-01T12:47:02.205Z,97.10
2023-05-01T12:49:31.027Z,97.20
2023-05-01T12:51:59.902Z,96.80
2023-05-01T12:54:30.420Z,97.80
2023-05-01T12:57:10.487Z,97.00
2023-05-01T12:59:39.184Z,96.20
2023-05-01T13:02:07.169Z,95.20
2023-05-01T13:04:35.146Z,95.70
2023-05-01T13:07:02.669Z,95.50
2023-05-01T13:09:32.641Z,94.70
2023-05-01T13:12:06.764Z,95.30
2023-05-01T13:14:41.935Z,94.10
2023-05-01T13:17:12.860Z,93.20
2023-05-01T13:19:40.803Z,93.50
2023-05-01T13:22:08.065Z,94.00
2023-05-01T13:24:46.331Z,95.30
2023-05-01T13:27:13.494Z,94.80
2023-05-01T13:29:45.672Z,94.60
2023-05-01T13:32:13.836Z,95.70
2023-05-01T13:34:42.611Z,95.70
2023-05-01T13:37:14.035Z,95.50
2023-05-01T13:39:45.398Z,95.70
2023-05-01T13:42:13.262Z,95.20
2023-05-01T13:44:53.352Z,93.60
2023-05-01T13:47:20.747Z,93.40
2023-05-01T13:49:48.821Z,94.60
2023-05-01T13:52:17.821Z,97.20
2023-05-01T13:54:45.564Z,98.50
2023-05-01T13:57:12.561Z,98.60
2023-05-01T13:59:44.387Z,99.90
2023-05-01T14:02:27.112Z,99.90
2023-05-01T14:04:55.026Z,99.90
2023-05-01T14:07:24.265Z,99.90
2023-05-01T14:09:58.444Z,99.90
2023-05-01T14:12:34.891Z,99.90
2023-05-01T14:15:03.137Z,99.90
2023-05-01T14:17:32.512Z,99.90
2023-05-01T14:19:59.610Z,99.90
2023-05-01T14:22:31.351Z,99.90
2023-05-01T14:24:59.009Z,99.90
2023-05-01T14:27:26.259Z,99.90
2023-05-01T14:29:55.121Z,99.90
2023-05-01T14:32:22.698Z,99.90
2023-05-01T14:34:50.082Z,99.90
2023-05-01T14:37:17.243Z,99.90
2023-05-01T14:39:44.347Z,99.90
2023-05-01T14:42:11.696Z,99.90
2023-05-01T14:44:42.353Z,99.90
2023-05-01T14:47:09.766Z,99.90
2023-05-01T14:49:37.003Z,99.90
2023-05-01T14:52:04.030Z,99.90
2023-05-01T14:54:36.232Z,99.90
2023-05-01T14:57:06.330Z,99.90
2023-05-01T14:59:33.400Z,99.90
2023-05-01T15:02:00.473Z,99.90
2023-05-01T15:04:27.653Z,99.90
2023-05-01T15:06:55.153Z,99.90
2023-05-01T15:09:22.179Z,99.90
2023-05-01T15:11:49.226Z,99.90
2023-05-01T15:14:16.738Z,99.90
2023-05-01T15:16:43.935Z,99.90
2023-05-01T15:19:11.130Z,99.90
2023-05-01T15:21:38.190Z,99.90
2023-05-01T15:24:05.248Z,99.90
2023-05-01T15:26:32.288Z,99.90
2023-05-01T15:28:59.560Z,99.90
2023-05-01T15:31:26.799Z,99.90
2023-05-01T15:33:54.225Z,99.90
2023-05-01T15:36:21.516Z,99.90
2023-05-01T15:38:48.533Z,99.90
2023-05-01T15:41:18.310Z,99.90
2023-05-01T15:43:46.143Z,99.90
2023-05-01T15:46:15.319Z,99.90
2023-05-01T15:48:42.509Z,99.90
2023-05-01T15:51:09.459Z,99.90
2023-05-01T15:53:36.476Z,99.90
2023-05-01T15:56:03.621Z,99.90
2023-05-01T15:58:30.627Z,99.90
2023-05-01T16:00:57.863Z,99.90
2023-05-01T16:03:24.999Z,99.90
2023-05-01T16:05:52.791Z,99.90
2023-05-01T16:08:19.733Z,99.90
2023-05-01T16:10:46.782Z,99.90
2023-05-01T16:13:14.001Z,99.90
2023-05-01T16:15:40.943Z,99.90
2023-05-01T16:18:08.745Z,99.90
2023-05-01T16:20:42.468Z,99.90
2023-05-01T16:23:09.374Z,99.90
2023-05-01T16:25:36.276Z,99.90
2023-05-01T16:28:06.197Z,99.90
2023-05-01T16:30:33.296Z,99.90
2023-05-01T16:33:03.891Z,99.90
2023-05-01T16:35:31.846Z,99.90
2023-05-01T16:37:59.928Z,99.90
2023-05-01T16:40:27.541Z,99.90
2023-05-01T16:42:54.952Z,99.90
2023-05-01T16:45:22.247Z,99.90
2023-05-01T16:47:49.498Z,99.90
2023-05-01T16:50:17.162Z,99.90
2023-05-01T16:52:44.151Z,99.90
2023-05-01T16:55:11.295Z,99.90
2023-05-01T16:57:38.330Z,99.90
2023-05-01T17:00:06.904Z,99.90
2023-05-01T17:02:34.258Z,99.90
2023-05-01T17:05:02.825Z,99.90
2023-05-01T17:07:29.865Z,99.90
2023-05-01T17:09:56.957Z,99.90
2023-05-01T17:12:24.233Z,99.90
2023-05-01T17:14:53.829Z,99.90
2023-05-01T17:17:22.117Z,99.90
2023-05-01T17:19:49.431Z,99.90
2023-05-01T17:22:16.703Z,99.90
2023-05-01T17:24:43.609Z,99.90
2023-05-01T17:27:10.855Z,99.90
2023-05-01T17:29:39.170Z,99.90
2023-05-01T17:32:06.536Z,99.90
2023-05-01T17:34:34.154Z,99.90
2023-05-01T17:37:01.126Z,99.90
2023-05-01T17:39:30.122Z,99.90
2023-05-01T17:41:57.369Z,99.90
2023-05-01T17:44:24.416Z,99.90
2023-05-01T17:46:51.603Z,99.90
2023-05-01T17:49:18.722Z,99.90
2023-05-01T17:51:45.646Z,99.90
2023-05-01T17:54:12.949Z,99.90
2023-05-01T17:56:40.807Z,99.90
2023-05-01T17:59:07.730Z,99.90
2023-05-01T18:01:35.642Z,99.90
2023-05-01T18:04:02.971Z,99.90
2023-05-01T18:06:31.807Z,99.90
2023-05-01T18:08:59.330Z,99.90
2023-05-01T18:11:26.347Z,99.90
2023-05-01T18:13:53.411Z,99.90
2023-05-01T18:16:20.986Z,99.90
2023-05-01T18:18:48.281Z,99.90
2023-05-01T18:21:15.492Z,99.90
2023-05-01T18:23:42.313Z,99.90
2023-05-01T18:26:09.299Z,99.90
2023-05-01T18:28:36.197Z,99.90
2023-05-01T18:31:03.842Z,99.90
2023-05-01T18:33:30.879Z,99.90
2023-05-01T18:35:58.319Z,99.90
2023-05-01T18:38:27.509Z,99.90
2023-05-01T18:40:55.270Z,99.90
2023-05-01T18:43:22.272Z,99.90
2023-05-01T18:45:49.253Z,99.90
2023-05-01T18:48:16.350Z,99.90
2023-05-01T18:50:47.249Z,99.90
2023-05-01T18:53:18.538Z,99.90
2023-05-01T18:55:45.689Z,99.90
2023-05-01T18:58:12.780Z,99.90
2023-05-01T19:00:39.939Z,99.90
2023-05-01T19:03:08.654Z,99.90
2023-05-01T19:05:35.875Z,99.90
2023-05-01T19:08:05.374Z,99.90
2023-05-01T19:10:32.530Z,99.90
2023-05-01T19:13:00.965Z,99.90
2023-05-01T19:15:28.360Z,99.90
2023-05-01T19:17:55.579Z,99.90
2023-05-01T19:20:22.706Z,99.90
2023-05-01T19:22:50.016Z,99.90
2023-05-01T19:25:18.133Z,99.90
2023-05-01T19:27:45.723Z,99.90
2023-05-01T19:30:12.819Z,99.90
2023-05-01T19:32:40.101Z,99.90
2023-05-01T19:35:10.112Z,99.90
2023-05-01T19:37:37.650Z,99.90
2023-05-01T19:40:05.119Z,99.90
2023-05-01T19:42:32.324Z,99.90
2023-05-01T19:44:59.412Z,99.90
2023-05-01T19:47:26.632Z,99.90
2023-05-01T19:49:53.999Z,99.90
2023-05-01T19:52:23.852Z,99.90
2023-05-01T19:54:51.314Z,99.90
2023-05-01T19:57:18.496Z,99.90
2023-05-01T19:59:46.022Z,99.90
2023-05-01T20:02:13.304Z,99.90
2023-05-01T20:04:40.540Z,99.90
2023-05-01T20:07:07.664Z,99.90
2023-05-01T20:09:34.918Z,99.90
2023-05-01T20:12:03.225Z,99.90
2023-05-01T20:14:31.714Z,99.90
2023-05-01T20:17:00.878Z,99.90
2023-05-01T20:19:28.961Z,99.90
2023-05-01T20:21:56.100Z,99.90
2023-05-01T20:24:23.188Z,99.90
2023-05-01T20:26:50.692Z,99.90
2023-05-01T20:29:18.095Z,99.90
2023-05-01T20:31:45.139Z,99.90
2023-05-01T20:34:12.264Z,99.90
2023-05-01T20:36:39.586Z,99.90
2023-05-01T20:39:06.953Z,99.90
2023-05-01T20:41:34.188Z,99.90
2023-05-01T20:44:02.409Z,99.90
2023-05-01T20:46:29.736Z,99.90
2023-05-01T20:48:57.244Z,99.90
2023-05-01T20:51:27.188Z,99.90
2023-05-01T20:53:54.521Z,99.90
2023-05-01T20:56:21.922Z,99.90
2023-05-01T20:58:49.074Z,99.90
2023-05-01T21:01:16.274Z,99.90
2023-05-01T21:03:43.662Z,99.90
2023-05-01T21:06:10.990Z,99.90
2023-05-01T21:08:38.227Z,99.90
2023-05-01T21:11:05.746Z,99.90
2023-05-01T21:13:32.973Z,99.90
2023-05-01T21:16:00.509Z,99.90
2023-05-01T21:18:30.196Z,99.90
2023-05-01T21:21:01.807Z,99.90
2023-05-01T21:23:30.160Z,99.90
2023-05-01T21:25:57.578Z,99.90
2023-05-01T21:28:25.269Z,99.90
2023-05-01T21:30:53.135Z,99.90
2023-05-01T21:33:20.265Z,99.90
2023-05-01T21:35:48.072Z,99.90
2023-05-01T21:38:16.025Z,99.90
2023-05-01T21:40:43.669Z,99.90
2023-05-01T21:43:10.832Z,99.90
2023-05-01T21:45:43.661Z,99.90
2023-05-01T21:48:14.776Z,99.90
2023-05-01T21:50:41.887Z,99.90
2023-05-01T21:53:09.225Z,99.90
2023-05-01T21:55:36.388Z,99.90
2023-05-01T21:58:04.115Z,99.90
2023-05-01T22:00:31.927Z,99.90
2023-05-01T22:02:59.506Z,99.90
2023-05-01T22:05:31.036Z,99.90
2023-05-01T22:07:58.292Z,99.90
2023-05-01T22:10:25.381Z,99.90
2023-05-01T22:12:53.663Z,99.90
2023-05-01T22:15:20.737Z,99.90
2023-05-01T22:17:47.850Z,99.90
2023-05-01T22:20:15.037Z,99.90
2023-05-01T22:22:43.124Z,99.90
2023-05-01T22:25:12.100Z,99.90
2023-05-01T22:27:39.285Z,99.90
2023-05-01T22:30:07.186Z,99.90
2023-05-01T22:32:34.477Z,99.90
2023-05-01T22:35:01.486Z,99.90
2023-05-01T22:37:28.712Z,99.90
2023-05-01T22:39:55.907Z,99.90
2023-05-01T22:42:23.337Z,99.90
2023-05-01T22:44:50.467Z,99.90
2023-05-01T22:47:17.617Z,99.90
2023-05-01T22:49:45.014Z,99.90
2023-05-01T22:52:12.062Z,99.90
2023-05-01T22:54:39.350Z,99.90
2023-05-01T22:57:06.691Z,99.90
2023-05-01T22:59:33.810Z,99.90
2023-05-01T23:02:05.036Z,99.90
2023-05-01T23:04:32.668Z,99.90
2023-05-01T23:06:59.867Z,99.90
2023-05-01T23:09:26.910Z,99.90
2023-05-01T23:11:54.161Z,99.90
2023-05-01T23:14:21.247Z,99.90
2023-05-01T23:16:48.441Z,99.90
2023-05-01T23:19:23.130Z,99.90
2023-05-01T23:22:05.334Z,99.90
2023-05-01T23:24:42.628Z,99.90
2023-05-01T23:27:10.455Z,99.90
2023-05-01T23:29:39.954Z,99.90
2023-05-01T23:32:22.039Z,99.90
2023-05-01T23:34:49.144Z,99.90
2023-05-01T23:37:16.238Z,99.90
2023-05-01T23:39:43.414Z,99.90
2023-05-01T23:42:10.652Z,99.90
2023-05-01T23:44:37.799Z,99.90
2023-05-01T23:47:05.289Z,99.90
2023-05-01T23:49:32.482Z,99.90
2023-05-01T23:51:59.633Z,99.90
2023-05-01T23:54:26.986Z,99.90
2023-05-01T23:56:54.505Z,99.90
2023-05-01T23:59:21.740Z,99.90
